Hauptseite
METAR-TAF:

METAR-TAF

Flughäfen :

Siegerlandflughafen

Siegen, Deutschland

Breite: 50-42-28N, Länge: 008-04-59E, Höhe: 602 m

Beobachtung

Neuester Wetterbericht von vor 1 Stunde und 36 Minuten, um 17:50 UTC
Wind 10 kt aus West/Nordwest, variierte zwischen West und Nordwest
Temperatur 6°C
Luftfeuchtigkeit 61%
Luftdruck 1017 hPa
Sichtweite 10 km oder mehr
Aufgelockert bewölkt in der Höhe von 2600 ft

METAR: EDGS 031750Z 29010KT 260V320 9999 SCT026 06/M01 Q1017

Zeit: 21:26 (19:26 UTC)

Prognose

Neuester Wetterbericht von vor 2 Stunden und 26 Minuten, um 17:00 UTC
Gültige Prognose vom 03 um 18 UTC bis 04 um 03 UTC
Wind 9 kt aus West/Nordwest
Sichtweite 10 km oder mehr
Aufgelockert bewölkt in der Höhe von 3500 ft
Übergehend zu
vom 03 um 18 UTC bis 03 um 21 UTC
Wind 4 kt aus West/Nordwest

TAF: EDGS 031700Z 0318/0403 29009KT 9999 SCT035 BECMG 0318/0321 29004KT

Wetterbeobachtungen und Prognosen von mehr als 4000 Flughäfen (METAR und TAF Bericht).

Die verfügbaren Stationen werden durch gelbe und rote Markierungen auf der Karte dargestellt.

Führen Sie die Maus auf sie, um den Namen der Station zu sehen.

Darauf klicken, um die Beobachtung von Wetterbeobachtungen und Prognosen zu sehen.

Um die Karte zu ändern : klicken Sie auf den grünen Tasten mit einem schwarzen Kreuz Zum Vergrößern, auf den grünen Button mit einem Gedankenstrich zu verkleinern, oder auf die grünen Pfeile für benachbarte Karten.


METAR-TAF: